This is the latest recevied weather packets stored in our database for station/object N9XRG. If no packets are shown the sender has not sent any weather packets the latest 10 day(s).
| Time | Temp. | Humidity | Pressure | Rain* | Wind** | Luminosity | Snow |
|---|---|---|---|---|---|---|---|
| 1777654614 | 10.56° C | 61% | 1014.6 hPa | 0 mm | - | 1007 W/m² | - |
| 1777654311 | 10° C | 66% | 1014.8 hPa | 0 mm | - | 992 W/m² | - |
| 1777654009 | 10.56° C | 63% | 1014.6 hPa | 0 mm | - | 266 W/m² | - |
| 1777653706 | 10° C | 65% | 1014.5 hPa | 0 mm | - | 335 W/m² | - |
| 1777653402 | 9.44° C | 65% | 1014.6 hPa | 0 mm | - | 1088 W/m² | - |
| 1777653099 | 10.56° C | 66% | 1014.6 hPa | 0 mm | - | 271 W/m² | - |
| 1777652795 | 10.56° C | 69% | 1014.7 hPa | 0 mm | - | 781 W/m² | - |
| 1777652492 | 9.44° C | 69% | 1014.5 hPa | 0 mm | - | 1042 W/m² | - |
| 1777652189 | 8.89° C | 71% | 1014.7 hPa | 0 mm | - | 978 W/m² | - |
| 1777651886 | 8.89° C | 71% | 1014.6 hPa | 0 mm | - | 289 W/m² | - |
| 1777651583 | 8.89° C | 67% | 1014.7 hPa | 0 mm | - | 835 W/m² | - |
| 1777651280 | 8.89° C | 68% | 1014.7 hPa | 0 mm | - | 851 W/m² | - |
| 1777650976 | 9.44° C | 69% | 1014.6 hPa | 0 mm | - | 401 W/m² | - |
| 1777650674 | 8.89° C | 72% | 1014.8 hPa | 0 mm | - | 957 W/m² | - |
| 1777650371 | 9.44° C | 70% | 1014.5 hPa | 0 mm | - | 263 W/m² | - |
| 1777650068 | 8.33° C | 78% | 1014.6 hPa | 0 mm | - | 1008 W/m² | - |
| 1777649765 | 8.89° C | 73% | 1014.5 hPa | 0 mm | - | 373 W/m² | - |
| 1777649462 | 8.89° C | 74% | 1014.5 hPa | 0 mm | - | 1002 W/m² | - |
| 1777649158 | 8.33° C | 78% | 1014.5 hPa | 0 mm | - | 590 W/m² | - |
| 1777648856 | 7.78° C | 78% | 1014.6 hPa | 0 mm | - | 689 W/m² | - |
| 1777648553 | 7.78° C | 81% | 1014.7 hPa | 0 mm | - | 1017 W/m² | - |
| 1777648250 | 6.67° C | 81% | 1014.8 hPa | 0 mm | - | 573 W/m² | - |
| 1777647950 | 6.67° C | 83% | 1014.5 hPa | 0 mm | - | 231 W/m² | - |
| 1777647647 | 7.22° C | 80% | 1014.5 hPa | 0 mm | - | 256 W/m² | - |
| 1777647343 | 7.78° C | 85% | 1014.4 hPa | 0 mm | - | 453 W/m² | - |
* Rain latest hour (hover to see other rain measurements)
** Current wind speed in m/s (hover to see current wind gust speed)